sensor_id;sensor_type;location;lat;lon;timestamp;P1;durP1;ratioP1;P2;durP2;ratioP2
20857;SDS011;10589;53.636;10.012;2023-05-10T03:46:18;5.73;;;3.43;;
20857;SDS011;10589;53.636;10.012;2023-05-10T03:48:44;5.70;;;3.43;;
20857;SDS011;10589;53.636;10.012;2023-05-10T03:51:10;4.37;;;3.97;;
20857;SDS011;10589;53.636;10.012;2023-05-10T03:53:35;8.10;;;3.40;;
20857;SDS011;10589;53.636;10.012;2023-05-10T03:56:01;8.10;;;4.00;;
20857;SDS011;10589;53.636;10.012;2023-05-10T03:58:26;8.57;;;3.77;;
20857;SDS011;10589;53.636;10.012;2023-05-10T04:00:52;4.10;;;3.60;;
20857;SDS011;10589;53.636;10.012;2023-05-10T04:03:18;3.57;;;3.20;;
20857;SDS011;10589;53.636;10.012;2023-05-10T04:05:45;6.00;;;3.40;;
20857;SDS011;10589;53.636;10.012;2023-05-10T04:08:10;5.73;;;3.60;;
20857;SDS011;10589;53.636;10.012;2023-05-10T04:10:36;6.50;;;3.40;;
20857;SDS011;10589;53.636;10.012;2023-05-10T04:13:01;4.70;;;3.23;;
20857;SDS011;10589;53.636;10.012;2023-05-10T04:15:27;9.30;;;3.53;;
20857;SDS011;10589;53.636;10.012;2023-05-10T04:17:52;4.00;;;3.40;;
20857;SDS011;10589;53.636;10.012;2023-05-10T04:20:18;4.30;;;3.30;;
20857;SDS011;10589;53.636;10.012;2023-05-10T04:22:44;7.97;;;3.43;;
20857;SDS011;10589;53.636;10.012;2023-05-10T04:25:09;4.93;;;3.90;;
20857;SDS011;10589;53.636;10.012;2023-05-10T04:27:35;8.13;;;3.80;;
20857;SDS011;10589;53.636;10.012;2023-05-10T04:30:01;4.80;;;3.23;;
20857;SDS011;10589;53.636;10.012;2023-05-10T04:32:27;6.73;;;3.60;;
20857;SDS011;10589;53.636;10.012;2023-05-10T04:34:53;6.90;;;4.07;;
20857;SDS011;10589;53.636;10.012;2023-05-10T04:37:18;5.57;;;3.73;;
20857;SDS011;10589;53.636;10.012;2023-05-10T04:39:44;5.27;;;3.63;;
20857;SDS011;10589;53.636;10.012;2023-05-10T04:42:10;7.17;;;3.43;;
20857;SDS011;10589;53.636;10.012;2023-05-10T04:44:36;4.70;;;3.80;;
20857;SDS011;10589;53.636;10.012;2023-05-10T04:47:02;6.27;;;3.60;;
20857;SDS011;10589;53.636;10.012;2023-05-10T04:49:28;6.93;;;3.40;;
20857;SDS011;10589;53.636;10.012;2023-05-10T04:51:54;6.03;;;3.67;;
20857;SDS011;10589;53.636;10.012;2023-05-10T04:54:20;5.93;;;3.47;;
20857;SDS011;10589;53.636;10.012;2023-05-10T04:56:46;6.03;;;3.70;;
20857;SDS011;10589;53.636;10.012;2023-05-10T04:59:11;4.30;;;3.87;;
20857;SDS011;10589;53.636;10.012;2023-05-10T05:01:37;7.83;;;3.93;;
20857;SDS011;10589;53.636;10.012;2023-05-10T05:04:03;7.00;;;3.97;;
20857;SDS011;10589;53.636;10.012;2023-05-10T05:06:29;7.80;;;4.10;;
20857;SDS011;10589;53.636;10.012;2023-05-10T05:08:54;5.53;;;3.63;;
20857;SDS011;10589;53.636;10.012;2023-05-10T05:11:20;7.27;;;3.97;;
20857;SDS011;10589;53.636;10.012;2023-05-10T05:13:46;7.23;;;3.97;;
20857;SDS011;10589;53.636;10.012;2023-05-10T05:16:11;9.37;;;3.40;;
20857;SDS011;10589;53.636;10.012;2023-05-10T05:18:37;5.33;;;3.80;;
20857;SDS011;10589;53.636;10.012;2023-05-10T05:21:03;4.67;;;4.07;;
20857;SDS011;10589;53.636;10.012;2023-05-10T05:23:28;8.47;;;3.77;;
20857;SDS011;10589;53.636;10.012;2023-05-10T05:25:54;5.63;;;3.60;;
20857;SDS011;10589;53.636;10.012;2023-05-10T05:28:20;3.90;;;3.47;;
20857;SDS011;10589;53.636;10.012;2023-05-10T05:30:45;8.20;;;3.97;;
20857;SDS011;10589;53.636;10.012;2023-05-10T05:33:13;5.20;;;3.87;;
20857;SDS011;10589;53.636;10.012;2023-05-10T05:35:40;5.10;;;3.60;;
20857;SDS011;10589;53.636;10.012;2023-05-10T05:38:06;10.23;;;3.90;;
20857;SDS011;10589;53.636;10.012;2023-05-10T05:40:31;5.60;;;3.67;;
20857;SDS011;10589;53.636;10.012;2023-05-10T05:42:57;5.50;;;3.90;;
20857;SDS011;10589;53.636;10.012;2023-05-10T05:45:22;6.30;;;3.70;;
20857;SDS011;10589;53.636;10.012;2023-05-10T05:47:48;5.73;;;3.70;;
20857;SDS011;10589;53.636;10.012;2023-05-10T05:50:14;6.37;;;3.57;;
20857;SDS011;10589;53.636;10.012;2023-05-10T05:52:39;5.30;;;3.50;;
20857;SDS011;10589;53.636;10.012;2023-05-10T05:55:05;5.73;;;3.10;;
20857;SDS011;10589;53.636;10.012;2023-05-10T05:57:31;5.90;;;3.73;;
20857;SDS011;10589;53.636;10.012;2023-05-10T05:59:56;8.37;;;3.57;;
20857;SDS011;10589;53.636;10.012;2023-05-10T06:02:22;5.93;;;4.20;;
20857;SDS011;10589;53.636;10.012;2023-05-10T06:04:48;6.67;;;3.63;;
20857;SDS011;10589;53.636;10.012;2023-05-10T06:07:13;6.00;;;3.70;;
20857;SDS011;10589;53.636;10.012;2023-05-10T06:09:39;6.53;;;4.10;;
20857;SDS011;10589;53.636;10.012;2023-05-10T06:12:04;6.50;;;3.33;;
20857;SDS011;10589;53.636;10.012;2023-05-10T06:14:30;5.40;;;3.57;;
20857;SDS011;10589;53.636;10.012;2023-05-10T06:16:56;7.80;;;3.80;;
20857;SDS011;10589;53.636;10.012;2023-05-10T06:19:21;7.20;;;3.63;;
20857;SDS011;10589;53.636;10.012;2023-05-10T06:21:47;5.60;;;3.53;;
20857;SDS011;10589;53.636;10.012;2023-05-10T06:24:13;4.57;;;3.90;;
20857;SDS011;10589;53.636;10.012;2023-05-10T06:26:38;5.77;;;3.47;;
20857;SDS011;10589;53.636;10.012;2023-05-10T06:29:04;6.73;;;3.80;;
20857;SDS011;10589;53.636;10.012;2023-05-10T06:31:30;4.60;;;3.27;;
20857;SDS011;10589;53.636;10.012;2023-05-10T06:33:55;5.63;;;3.40;;
20857;SDS011;10589;53.636;10.012;2023-05-10T06:36:21;4.72;;;3.30;;
20857;SDS011;10589;53.636;10.012;2023-05-10T06:38:47;5.15;;;3.80;;
20857;SDS011;10589;53.636;10.012;2023-05-10T06:41:12;7.77;;;3.57;;
20857;SDS011;10589;53.636;10.012;2023-05-10T06:43:38;12.00;;;3.87;;
20857;SDS011;10589;53.636;10.012;2023-05-10T06:46:06;4.93;;;3.30;;
20857;SDS011;10589;53.636;10.012;2023-05-10T06:48:32;6.07;;;3.70;;
20857;SDS011;10589;53.636;10.012;2023-05-10T06:50:57;5.37;;;3.60;;
20857;SDS011;10589;53.636;10.012;2023-05-10T06:53:23;7.67;;;3.93;;
20857;SDS011;10589;53.636;10.012;2023-05-10T06:55:49;5.13;;;4.00;;
20857;SDS011;10589;53.636;10.012;2023-05-10T06:58:15;6.43;;;3.90;;
20857;SDS011;10589;53.636;10.012;2023-05-10T07:00:40;8.33;;;3.37;;
20857;SDS011;10589;53.636;10.012;2023-05-10T07:03:09;8.40;;;3.60;;
20857;SDS011;10589;53.636;10.012;2023-05-10T07:05:35;4.77;;;3.63;;
20857;SDS011;10589;53.636;10.012;2023-05-10T07:08:01;7.38;;;3.60;;
20857;SDS011;10589;53.636;10.012;2023-05-10T07:10:26;4.47;;;3.40;;
20857;SDS011;10589;53.636;10.012;2023-05-10T07:12:52;4.35;;;3.08;;
20857;SDS011;10589;53.636;10.012;2023-05-10T07:15:18;5.78;;;3.17;;
20857;SDS011;10589;53.636;10.012;2023-05-10T07:17:43;3.95;;;3.38;;
20857;SDS011;10589;53.636;10.012;2023-05-10T07:20:10;8.55;;;3.20;;
20857;SDS011;10589;53.636;10.012;2023-05-10T07:22:36;3.67;;;3.30;;
20857;SDS011;10589;53.636;10.012;2023-05-10T07:25:02;14.82;;;3.97;;
20857;SDS011;10589;53.636;10.012;2023-05-10T07:27:27;5.43;;;3.40;;
20857;SDS011;10589;53.636;10.012;2023-05-10T07:29:53;4.00;;;3.50;;
20857;SDS011;10589;53.636;10.012;2023-05-10T07:32:19;6.50;;;3.53;;
20857;SDS011;10589;53.636;10.012;2023-05-10T07:34:46;8.52;;;3.47;;
20857;SDS011;10589;53.636;10.012;2023-05-10T07:37:11;5.50;;;3.88;;
20857;SDS011;10589;53.636;10.012;2023-05-10T07:39:37;5.20;;;3.30;;
20857;SDS011;10589;53.636;10.012;2023-05-10T07:42:03;8.55;;;3.50;;
20857;SDS011;10589;53.636;10.012;2023-05-10T07:44:28;4.45;;;3.72;;
20857;SDS011;10589;53.636;10.012;2023-05-10T07:46:54;6.80;;;3.30;;
20857;SDS011;10589;53.636;10.012;2023-05-10T07:49:20;8.15;;;4.05;;
20857;SDS011;10589;53.636;10.012;2023-05-10T07:51:49;4.65;;;3.58;;
20857;SDS011;10589;53.636;10.012;2023-05-10T07:54:15;8.90;;;4.00;;
20857;SDS011;10589;53.636;10.012;2023-05-10T07:56:40;8.52;;;3.70;;
20857;SDS011;10589;53.636;10.012;2023-05-10T07:59:14;5.28;;;3.78;;
20857;SDS011;10589;53.636;10.012;2023-05-10T08:01:49;6.05;;;3.78;;
20857;SDS011;10589;53.636;10.012;2023-05-10T08:04:15;7.88;;;3.50;;
20857;SDS011;10589;53.636;10.012;2023-05-10T08:06:41;8.75;;;3.63;;
20857;SDS011;10589;53.636;10.012;2023-05-10T08:09:06;4.28;;;3.80;;
20857;SDS011;10589;53.636;10.012;2023-05-10T08:11:33;7.78;;;3.55;;
20857;SDS011;10589;53.636;10.012;2023-05-10T08:14:00;6.28;;;3.28;;
20857;SDS011;10589;53.636;10.012;2023-05-10T08:16:25;9.70;;;4.10;;
20857;SDS011;10589;53.636;10.012;2023-05-10T08:18:51;10.05;;;3.47;;
20857;SDS011;10589;53.636;10.012;2023-05-10T08:21:16;4.43;;;3.53;;
20857;SDS011;10589;53.636;10.012;2023-05-10T08:23:42;7.35;;;3.50;;
20857;SDS011;10589;53.636;10.012;2023-05-10T08:26:08;9.73;;;3.15;;
20857;SDS011;10589;53.636;10.012;2023-05-10T08:28:34;6.35;;;3.38;;
20857;SDS011;10589;53.636;10.012;2023-05-10T08:31:00;6.00;;;3.58;;
20857;SDS011;10589;53.636;10.012;2023-05-10T08:33:25;9.07;;;3.80;;
20857;SDS011;10589;53.636;10.012;2023-05-10T08:35:51;5.18;;;3.45;;
20857;SDS011;10589;53.636;10.012;2023-05-10T08:38:17;4.72;;;3.50;;
20857;SDS011;10589;53.636;10.012;2023-05-10T08:40:44;6.75;;;3.95;;
20857;SDS011;10589;53.636;10.012;2023-05-10T08:43:11;7.00;;;3.30;;
20857;SDS011;10589;53.636;10.012;2023-05-10T08:45:44;5.15;;;4.00;;
20857;SDS011;10589;53.636;10.012;2023-05-10T08:48:11;6.68;;;3.70;;
20857;SDS011;10589;53.636;10.012;2023-05-10T08:50:38;5.28;;;3.58;;
20857;SDS011;10589;53.636;10.012;2023-05-10T08:53:06;6.63;;;3.60;;
20857;SDS011;10589;53.636;10.012;2023-05-10T08:55:35;4.40;;;3.80;;
20857;SDS011;10589;53.636;10.012;2023-05-10T08:58:03;4.55;;;3.67;;
20857;SDS011;10589;53.636;10.012;2023-05-10T09:00:29;7.13;;;3.60;;
20857;SDS011;10589;53.636;10.012;2023-05-10T09:02:56;6.07;;;3.72;;
20857;SDS011;10589;53.636;10.012;2023-05-10T09:05:23;6.63;;;4.13;;
20857;SDS011;10589;53.636;10.012;2023-05-10T09:07:48;5.57;;;3.70;;
20857;SDS011;10589;53.636;10.012;2023-05-10T09:10:14;8.43;;;4.03;;
20857;SDS011;10589;53.636;10.012;2023-05-10T09:12:40;5.95;;;4.00;;
20857;SDS011;10589;53.636;10.012;2023-05-10T09:15:06;5.82;;;3.88;;
20857;SDS011;10589;53.636;10.012;2023-05-10T09:17:34;6.80;;;3.80;;
20857;SDS011;10589;53.636;10.012;2023-05-10T09:20:00;5.60;;;3.97;;
20857;SDS011;10589;53.636;10.012;2023-05-10T09:22:30;6.03;;;3.05;;
20857;SDS011;10589;53.636;10.012;2023-05-10T09:25:09;11.43;;;4.18;;
20857;SDS011;10589;53.636;10.012;2023-05-10T09:27:36;7.25;;;4.45;;
20857;SDS011;10589;53.636;10.012;2023-05-10T09:30:03;5.95;;;4.05;;
20857;SDS011;10589;53.636;10.012;2023-05-10T09:32:40;7.32;;;3.95;;
20857;SDS011;10589;53.636;10.012;2023-05-10T09:35:07;4.35;;;3.95;;
20857;SDS011;10589;53.636;10.012;2023-05-10T09:37:36;6.00;;;3.83;;
20857;SDS011;10589;53.636;10.012;2023-05-10T09:40:05;6.75;;;3.90;;
20857;SDS011;10589;53.636;10.012;2023-05-10T09:42:32;8.73;;;4.40;;
20857;SDS011;10589;53.636;10.012;2023-05-10T09:45:04;7.93;;;4.55;;
20857;SDS011;10589;53.636;10.012;2023-05-10T09:47:34;8.35;;;4.50;;
20857;SDS011;10589;53.636;10.012;2023-05-10T09:50:01;6.85;;;4.40;;
20857;SDS011;10589;53.636;10.012;2023-05-10T09:52:29;9.98;;;4.32;;
20857;SDS011;10589;53.636;10.012;2023-05-10T09:54:56;9.15;;;4.43;;
20857;SDS011;10589;53.636;10.012;2023-05-10T09:57:22;10.90;;;4.45;;
20857;SDS011;10589;53.636;10.012;2023-05-10T09:59:49;8.25;;;4.40;;
20857;SDS011;10589;53.636;10.012;2023-05-10T10:02:15;5.00;;;4.50;;
20857;SDS011;10589;53.636;10.012;2023-05-10T10:04:41;7.88;;;5.20;;
20857;SDS011;10589;53.636;10.012;2023-05-10T10:07:07;7.72;;;4.88;;
20857;SDS011;10589;53.636;10.012;2023-05-10T10:09:34;8.73;;;4.80;;
20857;SDS011;10589;53.636;10.012;2023-05-10T10:12:03;6.05;;;4.68;;
20857;SDS011;10589;53.636;10.012;2023-05-10T10:14:29;9.52;;;5.50;;
20857;SDS011;10589;53.636;10.012;2023-05-10T10:16:55;8.15;;;5.70;;
20857;SDS011;10589;53.636;10.012;2023-05-10T10:19:21;8.73;;;6.00;;
20857;SDS011;10589;53.636;10.012;2023-05-10T10:21:47;7.60;;;5.82;;
20857;SDS011;10589;53.636;10.012;2023-05-10T10:24:15;9.63;;;6.78;;
20857;SDS011;10589;53.636;10.012;2023-05-10T10:26:41;12.17;;;7.37;;
20857;SDS011;10589;53.636;10.012;2023-05-10T10:31:53;8.52;;;7.47;;
20857;SDS011;10589;53.636;10.012;2023-05-10T10:34:33;12.02;;;7.30;;
20857;SDS011;10589;53.636;10.012;2023-05-10T10:37:03;10.37;;;7.47;;
20857;SDS011;10589;53.636;10.012;2023-05-10T10:39:30;7.67;;;6.87;;
20857;SDS011;10589;53.636;10.012;2023-05-10T10:41:56;13.37;;;7.30;;
20857;SDS011;10589;53.636;10.012;2023-05-10T10:49:50;10.60;;;7.97;;
20857;SDS011;10589;53.636;10.012;2023-05-10T10:52:33;10.03;;;8.10;;
20857;SDS011;10589;53.636;10.012;2023-05-10T11:02:52;10.70;;;8.93;;
20857;SDS011;10589;53.636;10.012;2023-05-10T11:10:51;10.00;;;9.00;;
20857;SDS011;10589;53.636;10.012;2023-05-10T11:13:32;10.83;;;8.53;;
20857;SDS011;10589;53.636;10.012;2023-05-10T11:16:21;8.73;;;7.80;;
20857;SDS011;10589;53.636;10.012;2023-05-10T11:18:54;10.50;;;8.40;;
20857;SDS011;10589;53.636;10.012;2023-05-10T11:21:30;8.60;;;7.60;;
20857;SDS011;10589;53.636;10.012;2023-05-10T11:23:57;9.53;;;8.47;;
20857;SDS011;10589;53.636;10.012;2023-05-10T11:26:24;13.83;;;9.13;;
20857;SDS011;10589;53.636;10.012;2023-05-10T11:28:51;13.53;;;9.77;;
20857;SDS011;10589;53.636;10.012;2023-05-10T11:31:23;15.00;;;9.60;;
20857;SDS011;10589;53.636;10.012;2023-05-10T11:33:52;14.10;;;9.83;;
20857;SDS011;10589;53.636;10.012;2023-05-10T11:38:52;12.10;;;10.20;;
20857;SDS011;10589;53.636;10.012;2023-05-10T11:41:19;10.47;;;9.23;;
20857;SDS011;10589;53.636;10.012;2023-05-10T11:43:51;14.03;;;10.60;;
20857;SDS011;10589;53.636;10.012;2023-05-10T11:46:19;11.87;;;9.40;;
20857;SDS011;10589;53.636;10.012;2023-05-10T11:48:46;11.27;;;9.70;;
20857;SDS011;10589;53.636;10.012;2023-05-10T11:51:15;15.13;;;9.02;;
20857;SDS011;10589;53.636;10.012;2023-05-10T11:53:44;12.80;;;9.07;;
20857;SDS011;10589;53.636;10.012;2023-05-10T11:56:10;10.70;;;9.02;;
20857;SDS011;10589;53.636;10.012;2023-05-10T11:58:36;8.85;;;7.80;;
20857;SDS011;10589;53.636;10.012;2023-05-10T12:01:04;10.07;;;7.55;;
20857;SDS011;10589;53.636;10.012;2023-05-10T12:03:31;11.33;;;8.80;;
20857;SDS011;10589;53.636;10.012;2023-05-10T12:05:58;12.00;;;9.18;;
20857;SDS011;10589;53.636;10.012;2023-05-10T12:08:24;12.02;;;10.15;;
20857;SDS011;10589;53.636;10.012;2023-05-10T12:10:52;14.13;;;10.98;;
20857;SDS011;10589;53.636;10.012;2023-05-10T12:13:19;12.67;;;11.37;;
20857;SDS011;10589;53.636;10.012;2023-05-10T12:15:45;11.73;;;10.20;;
20857;SDS011;10589;53.636;10.012;2023-05-10T12:18:12;11.30;;;10.15;;
20857;SDS011;10589;53.636;10.012;2023-05-10T12:20:39;11.73;;;10.55;;
20857;SDS011;10589;53.636;10.012;2023-05-10T12:23:07;11.73;;;9.87;;
20857;SDS011;10589;53.636;10.012;2023-05-10T12:25:35;13.37;;;10.30;;
20857;SDS011;10589;53.636;10.012;2023-05-10T12:28:08;11.40;;;10.20;;
20857;SDS011;10589;53.636;10.012;2023-05-10T12:30:36;11.63;;;10.43;;
20857;SDS011;10589;53.636;10.012;2023-05-10T12:35:43;16.13;;;9.30;;
20857;SDS011;10589;53.636;10.012;2023-05-10T12:38:30;10.40;;;9.37;;
20857;SDS011;10589;53.636;10.012;2023-05-10T12:41:08;13.30;;;8.52;;
20857;SDS011;10589;53.636;10.012;2023-05-10T12:43:35;11.65;;;8.63;;
20857;SDS011;10589;53.636;10.012;2023-05-10T12:46:35;8.85;;;7.95;;
20857;SDS011;10589;53.636;10.012;2023-05-10T12:48:54;10.13;;;8.60;;
20857;SDS011;10589;53.636;10.012;2023-05-10T12:51:20;11.70;;;8.68;;
20857;SDS011;10589;53.636;10.012;2023-05-10T12:53:47;9.55;;;8.57;;
20857;SDS011;10589;53.636;10.012;2023-05-10T12:56:13;8.73;;;7.78;;
20857;SDS011;10589;53.636;10.012;2023-05-10T12:58:38;9.43;;;7.57;;
20857;SDS011;10589;53.636;10.012;2023-05-10T13:01:04;7.90;;;7.10;;
20857;SDS011;10589;53.636;10.012;2023-05-10T13:03:30;7.40;;;6.70;;
20857;SDS011;10589;53.636;10.012;2023-05-10T13:05:56;7.78;;;6.82;;
20857;SDS011;10589;53.636;10.012;2023-05-10T13:08:22;7.63;;;6.93;;
20857;SDS011;10589;53.636;10.012;2023-05-10T13:10:47;6.30;;;5.70;;
20857;SDS011;10589;53.636;10.012;2023-05-10T13:13:13;5.25;;;4.72;;
20857;SDS011;10589;53.636;10.012;2023-05-10T13:15:39;6.75;;;6.00;;
20857;SDS011;10589;53.636;10.012;2023-05-10T13:18:05;8.27;;;5.88;;
20857;SDS011;10589;53.636;10.012;2023-05-10T13:20:30;7.80;;;5.53;;
20857;SDS011;10589;53.636;10.012;2023-05-10T13:22:56;6.78;;;4.80;;
20857;SDS011;10589;53.636;10.012;2023-05-10T13:25:21;5.35;;;4.88;;
20857;SDS011;10589;53.636;10.012;2023-05-10T13:27:47;5.60;;;5.03;;
20857;SDS011;10589;53.636;10.012;2023-05-10T13:30:12;7.20;;;5.85;;
20857;SDS011;10589;53.636;10.012;2023-05-10T13:32:38;4.85;;;4.22;;
20857;SDS011;10589;53.636;10.012;2023-05-10T13:35:04;4.95;;;4.55;;
20857;SDS011;10589;53.636;10.012;2023-05-10T13:37:30;8.15;;;5.15;;
20857;SDS011;10589;53.636;10.012;2023-05-10T13:39:57;5.80;;;4.95;;
20857;SDS011;10589;53.636;10.012;2023-05-10T13:42:22;5.78;;;5.15;;
20857;SDS011;10589;53.636;10.012;2023-05-10T13:44:49;8.23;;;5.22;;
20857;SDS011;10589;53.636;10.012;2023-05-10T13:47:15;6.30;;;5.70;;
20857;SDS011;10589;53.636;10.012;2023-05-10T13:49:41;6.43;;;5.82;;
20857;SDS011;10589;53.636;10.012;2023-05-10T13:52:07;7.22;;;6.53;;
20857;SDS011;10589;53.636;10.012;2023-05-10T13:54:36;7.57;;;6.57;;
20857;SDS011;10589;53.636;10.012;2023-05-10T13:57:03;7.50;;;6.68;;
20857;SDS011;10589;53.636;10.012;2023-05-10T13:59:29;7.28;;;6.65;;
20857;SDS011;10589;53.636;10.012;2023-05-10T14:01:56;6.05;;;5.47;;
20857;SDS011;10589;53.636;10.012;2023-05-10T14:04:22;6.68;;;5.97;;
20857;SDS011;10589;53.636;10.012;2023-05-10T14:06:48;8.73;;;5.90;;
20857;SDS011;10589;53.636;10.012;2023-05-10T14:09:13;6.55;;;4.90;;
20857;SDS011;10589;53.636;10.012;2023-05-10T14:11:39;9.15;;;5.47;;
20857;SDS011;10589;53.636;10.012;2023-05-10T14:14:08;5.75;;;5.25;;
20857;SDS011;10589;53.636;10.012;2023-05-10T14:16:34;6.38;;;4.38;;
20857;SDS011;10589;53.636;10.012;2023-05-10T14:19:00;5.40;;;4.90;;
20857;SDS011;10589;53.636;10.012;2023-05-10T14:21:26;5.07;;;4.57;;
20857;SDS011;10589;53.636;10.012;2023-05-10T14:23:52;6.00;;;5.43;;
20857;SDS011;10589;53.636;10.012;2023-05-10T14:26:19;6.68;;;5.90;;
20857;SDS011;10589;53.636;10.012;2023-05-10T14:28:45;7.10;;;5.60;;
20857;SDS011;10589;53.636;10.012;2023-05-10T14:31:11;7.75;;;7.05;;
20857;SDS011;10589;53.636;10.012;2023-05-10T14:33:37;7.35;;;6.60;;
20857;SDS011;10589;53.636;10.012;2023-05-10T14:36:03;7.63;;;6.05;;
20857;SDS011;10589;53.636;10.012;2023-05-10T14:38:29;6.43;;;5.72;;
20857;SDS011;10589;53.636;10.012;2023-05-10T14:40:54;7.72;;;6.13;;
20857;SDS011;10589;53.636;10.012;2023-05-10T14:43:20;7.00;;;6.40;;
20857;SDS011;10589;53.636;10.012;2023-05-10T14:45:45;6.20;;;5.70;;
20857;SDS011;10589;53.636;10.012;2023-05-10T14:48:12;6.78;;;5.80;;
20857;SDS011;10589;53.636;10.012;2023-05-10T14:50:40;6.43;;;5.82;;
20857;SDS011;10589;53.636;10.012;2023-05-10T14:53:06;6.10;;;5.50;;
20857;SDS011;10589;53.636;10.012;2023-05-10T14:55:31;5.80;;;5.22;;
20857;SDS011;10589;53.636;10.012;2023-05-10T14:57:57;6.38;;;5.70;;
20857;SDS011;10589;53.636;10.012;2023-05-10T15:00:23;6.40;;;5.80;;
20857;SDS011;10589;53.636;10.012;2023-05-10T15:02:49;5.65;;;5.15;;
20857;SDS011;10589;53.636;10.012;2023-05-10T15:05:14;5.45;;;4.93;;
20857;SDS011;10589;53.636;10.012;2023-05-10T15:07:40;5.60;;;5.07;;
20857;SDS011;10589;53.636;10.012;2023-05-10T15:10:08;7.38;;;4.80;;
20857;SDS011;10589;53.636;10.012;2023-05-10T15:12:35;5.07;;;4.57;;
20857;SDS011;10589;53.636;10.012;2023-05-10T15:15:00;5.32;;;4.82;;
20857;SDS011;10589;53.636;10.012;2023-05-10T15:17:26;5.43;;;4.93;;
20857;SDS011;10589;53.636;10.012;2023-05-10T15:19:51;6.30;;;4.65;;
20857;SDS011;10589;53.636;10.012;2023-05-10T15:22:17;6.55;;;4.78;;
20857;SDS011;10589;53.636;10.012;2023-05-10T15:24:42;5.53;;;5.03;;
20857;SDS011;10589;53.636;10.012;2023-05-10T15:27:08;5.68;;;5.05;;
20857;SDS011;10589;53.636;10.012;2023-05-10T15:29:34;6.25;;;4.40;;
20857;SDS011;10589;53.636;10.012;2023-05-10T15:32:00;5.15;;;4.65;;
20857;SDS011;10589;53.636;10.012;2023-05-10T15:34:26;5.95;;;4.65;;
20857;SDS011;10589;53.636;10.012;2023-05-10T15:36:52;4.35;;;3.95;;
20857;SDS011;10589;53.636;10.012;2023-05-10T15:39:18;5.18;;;4.70;;
20857;SDS011;10589;53.636;10.012;2023-05-10T15:41:44;6.10;;;4.82;;
20857;SDS011;10589;53.636;10.012;2023-05-10T15:44:10;6.13;;;5.07;;
20857;SDS011;10589;53.636;10.012;2023-05-10T15:46:35;5.88;;;4.50;;
20857;SDS011;10589;53.636;10.012;2023-05-10T15:49:02;5.05;;;4.65;;
20857;SDS011;10589;53.636;10.012;2023-05-10T15:51:28;6.20;;;4.82;;
20857;SDS011;10589;53.636;10.012;2023-05-10T15:53:54;4.50;;;4.20;;
20857;SDS011;10589;53.636;10.012;2023-05-10T15:56:19;7.40;;;5.07;;
20857;SDS011;10589;53.636;10.012;2023-05-10T15:58:46;5.32;;;4.82;;
20857;SDS011;10589;53.636;10.012;2023-05-10T16:01:11;5.60;;;5.00;;
20857;SDS011;10589;53.636;10.012;2023-05-10T16:03:37;5.38;;;4.88;;
20857;SDS011;10589;53.636;10.012;2023-05-10T16:06:03;5.65;;;5.10;;
20857;SDS011;10589;53.636;10.012;2023-05-10T16:08:29;5.05;;;4.55;;
20857;SDS011;10589;53.636;10.012;2023-05-10T16:10:54;5.15;;;4.65;;
20857;SDS011;10589;53.636;10.012;2023-05-10T16:13:20;5.68;;;5.07;;
20857;SDS011;10589;53.636;10.012;2023-05-10T16:15:46;5.70;;;4.65;;
20857;SDS011;10589;53.636;10.012;2023-05-10T16:18:12;4.65;;;4.22;;
20857;SDS011;10589;53.636;10.012;2023-05-10T16:20:37;5.57;;;4.90;;
20857;SDS011;10589;53.636;10.012;2023-05-10T16:23:04;6.43;;;5.82;;
20857;SDS011;10589;53.636;10.012;2023-05-10T16:25:31;7.10;;;6.10;;
20857;SDS011;10589;53.636;10.012;2023-05-10T16:27:57;7.75;;;7.05;;
20857;SDS011;10589;53.636;10.012;2023-05-10T16:30:23;8.93;;;8.07;;
20857;SDS011;10589;53.636;10.012;2023-05-10T16:32:51;11.77;;;9.20;;
20857;SDS011;10589;53.636;10.012;2023-05-10T16:35:17;10.80;;;9.65;;
20857;SDS011;10589;53.636;10.012;2023-05-10T16:37:43;12.37;;;9.97;;
20857;SDS011;10589;53.636;10.012;2023-05-10T16:40:09;9.10;;;6.87;;
20857;SDS011;10589;53.636;10.012;2023-05-10T16:42:35;8.20;;;6.20;;
20857;SDS011;10589;53.636;10.012;2023-05-10T16:45:01;7.93;;;5.35;;
20857;SDS011;10589;53.636;10.012;2023-05-10T16:47:35;5.40;;;4.90;;
20857;SDS011;10589;53.636;10.012;2023-05-10T16:50:02;7.20;;;4.57;;
20857;SDS011;10589;53.636;10.012;2023-05-10T16:52:29;6.43;;;5.23;;
20857;SDS011;10589;53.636;10.012;2023-05-10T16:54:56;5.93;;;5.33;;
20857;SDS011;10589;53.636;10.012;2023-05-10T16:57:23;7.70;;;5.73;;
20857;SDS011;10589;53.636;10.012;2023-05-10T16:59:49;6.17;;;5.57;;
20857;SDS011;10589;53.636;10.012;2023-05-10T17:02:17;6.67;;;5.67;;
20857;SDS011;10589;53.636;10.012;2023-05-10T17:04:46;6.05;;;5.18;;
20857;SDS011;10589;53.636;10.012;2023-05-10T17:07:12;8.35;;;6.25;;
20857;SDS011;10589;53.636;10.012;2023-05-10T17:09:40;6.10;;;5.50;;
20857;SDS011;10589;53.636;10.012;2023-05-10T17:12:07;6.57;;;5.97;;
20857;SDS011;10589;53.636;10.012;2023-05-10T17:14:32;6.90;;;6.20;;
20857;SDS011;10589;53.636;10.012;2023-05-10T17:16:58;9.17;;;7.87;;
20857;SDS011;10589;53.636;10.012;2023-05-10T17:19:24;7.78;;;7.07;;
20857;SDS011;10589;53.636;10.012;2023-05-10T17:21:50;7.95;;;7.15;;
20857;SDS011;10589;53.636;10.012;2023-05-10T17:24:15;9.95;;;8.95;;
20857;SDS011;10589;53.636;10.012;2023-05-10T17:26:41;9.90;;;8.90;;
20857;SDS011;10589;53.636;10.012;2023-05-10T17:29:07;9.50;;;8.52;;
20857;SDS011;10589;53.636;10.012;2023-05-10T17:31:32;8.43;;;7.63;;
20857;SDS011;10589;53.636;10.012;2023-05-10T17:33:58;8.57;;;7.78;;
20857;SDS011;10589;53.636;10.012;2023-05-10T17:36:24;9.45;;;7.78;;
20857;SDS011;10589;53.636;10.012;2023-05-10T17:38:50;9.00;;;7.03;;
20857;SDS011;10589;53.636;10.012;2023-05-10T17:41:16;8.15;;;7.25;;
20857;SDS011;10589;53.636;10.012;2023-05-10T17:43:42;8.63;;;7.82;;
20857;SDS011;10589;53.636;10.012;2023-05-10T17:46:08;7.20;;;6.47;;
20857;SDS011;10589;53.636;10.012;2023-05-10T17:48:34;8.40;;;7.60;;
20857;SDS011;10589;53.636;10.012;2023-05-10T17:51:01;7.47;;;6.75;;
20857;SDS011;10589;53.636;10.012;2023-05-10T17:53:27;7.80;;;6.70;;
20857;SDS011;10589;53.636;10.012;2023-05-10T17:55:53;8.20;;;7.38;;
20857;SDS011;10589;53.636;10.012;2023-05-10T17:58:22;8.13;;;7.38;;
20857;SDS011;10589;53.636;10.012;2023-05-10T18:00:52;11.03;;;9.87;;
20857;SDS011;10589;53.636;10.012;2023-05-10T18:03:19;12.07;;;10.07;;
20857;SDS011;10589;53.636;10.012;2023-05-10T18:05:45;10.30;;;9.23;;
20857;SDS011;10589;53.636;10.012;2023-05-10T18:08:11;10.10;;;9.10;;
20857;SDS011;10589;53.636;10.012;2023-05-10T18:10:37;9.87;;;8.87;;
20857;SDS011;10589;53.636;10.012;2023-05-10T18:13:03;11.23;;;9.77;;
20857;SDS011;10589;53.636;10.012;2023-05-10T18:15:32;10.67;;;9.47;;
20857;SDS011;10589;53.636;10.012;2023-05-10T18:18:01;10.97;;;9.10;;
20857;SDS011;10589;53.636;10.012;2023-05-10T18:20:28;12.37;;;10.00;;
20857;SDS011;10589;53.636;10.012;2023-05-10T18:22:54;9.70;;;8.43;;
20857;SDS011;10589;53.636;10.012;2023-05-10T18:25:20;11.00;;;9.13;;
20857;SDS011;10589;53.636;10.012;2023-05-10T18:27:46;10.87;;;8.60;;
20857;SDS011;10589;53.636;10.012;2023-05-10T18:30:12;12.93;;;9.43;;
20857;SDS011;10589;53.636;10.012;2023-05-10T18:32:38;11.43;;;8.27;;
20857;SDS011;10589;53.636;10.012;2023-05-10T18:35:04;13.20;;;9.30;;
20857;SDS011;10589;53.636;10.012;2023-05-10T18:37:30;12.13;;;8.40;;
20857;SDS011;10589;53.636;10.012;2023-05-10T18:39:57;11.83;;;8.80;;